createdAt,value
2022-09-23T00:01:46.615Z,11.64
2022-09-23T00:04:15.390Z,11.69
2022-09-23T00:06:45.244Z,11.93
2022-09-23T00:09:13.984Z,11.77
2022-09-23T00:11:42.792Z,11.73
2022-09-23T00:14:11.724Z,11.82
2022-09-23T00:16:42.303Z,11.57
2022-09-23T00:19:11.065Z,11.58
2022-09-23T00:21:40.383Z,11.42
2022-09-23T00:24:09.520Z,11.65
2022-09-23T00:26:38.256Z,11.82
2022-09-23T00:29:07.142Z,11.44
2022-09-23T00:31:35.966Z,11.53
2022-09-23T00:34:06.113Z,11.82
2022-09-23T00:36:35.447Z,11.68
2022-09-23T00:39:04.769Z,11.65
2022-09-23T00:41:34.084Z,11.38
2022-09-23T00:44:03.605Z,11.79
2022-09-23T00:46:38.043Z,11.74
2022-09-23T00:49:14.015Z,11.68
2022-09-23T00:51:47.807Z,11.64
2022-09-23T00:54:19.200Z,11.85
2022-09-23T00:56:47.882Z,11.83
2022-09-23T00:59:16.994Z,11.91
2022-09-23T01:01:46.994Z,11.72
2022-09-23T01:04:17.523Z,11.70
2022-09-23T01:06:46.412Z,11.71
2022-09-23T01:09:15.148Z,12.10
2022-09-23T01:11:53.462Z,11.79
2022-09-23T01:14:38.096Z,11.43
2022-09-23T01:17:14.742Z,11.27
2022-09-23T01:20:06.935Z,11.36
2022-09-23T01:22:44.424Z,11.86
2022-09-23T01:25:34.727Z,11.76
2022-09-23T01:28:19.236Z,11.98
2022-09-23T01:30:58.873Z,11.65
2022-09-23T01:33:39.841Z,11.91
2022-09-23T01:36:16.631Z,11.76
2022-09-23T01:38:59.199Z,11.64
2022-09-23T01:41:47.473Z,11.78
2022-09-23T01:44:23.172Z,11.75
2022-09-23T01:46:56.669Z,11.55
2022-09-23T01:49:30.391Z,11.57
2022-09-23T01:52:05.464Z,11.69
2022-09-23T01:54:39.991Z,11.73
2022-09-23T01:57:13.858Z,11.93
2022-09-23T01:59:48.679Z,11.64
2022-09-23T02:02:26.692Z,11.19
2022-09-23T02:05:01.966Z,11.50
2022-09-23T02:07:36.183Z,11.43
2022-09-23T02:10:11.562Z,11.19
2022-09-23T02:12:45.935Z,11.73
2022-09-23T02:15:18.771Z,11.70
2022-09-23T02:17:52.077Z,11.77
2022-09-23T02:20:25.874Z,11.79
2022-09-23T02:23:01.645Z,11.74
2022-09-23T02:25:38.518Z,11.86
2022-09-23T02:28:13.377Z,11.80
2022-09-23T02:30:50.199Z,11.78
2022-09-23T02:33:25.544Z,11.85
2022-09-23T02:36:01.294Z,11.76
2022-09-23T02:38:36.226Z,11.43
2022-09-23T02:41:11.310Z,11.80
2022-09-23T02:43:47.535Z,11.71
2022-09-23T02:46:16.804Z,11.61
2022-09-23T02:48:51.416Z,11.56
2022-09-23T02:51:20.405Z,11.59
2022-09-23T02:53:49.241Z,11.72
2022-09-23T02:56:20.421Z,11.50
2022-09-23T02:58:50.325Z,11.59
2022-09-23T03:01:32.621Z,11.56
2022-09-23T03:04:15.024Z,11.61
2022-09-23T03:06:54.445Z,11.50
2022-09-23T03:09:29.199Z,11.53
2022-09-23T03:12:09.113Z,11.61
2022-09-23T03:14:44.827Z,11.42
2022-09-23T03:17:20.141Z,11.31
2022-09-23T03:19:54.934Z,11.52
2022-09-23T03:22:30.704Z,11.23
2022-09-23T03:25:03.682Z,11.35
2022-09-23T03:27:35.944Z,11.27
2022-09-23T03:30:06.581Z,11.25
2022-09-23T03:32:38.459Z,11.48
2022-09-23T03:35:10.018Z,11.55
2022-09-23T03:37:45.264Z,11.66
2022-09-23T03:40:19.500Z,11.35
2022-09-23T03:42:49.215Z,11.39
2022-09-23T03:45:22.686Z,11.34
2022-09-23T03:47:51.713Z,11.63
2022-09-23T03:50:22.363Z,11.43
2022-09-23T03:52:51.612Z,11.55
2022-09-23T03:55:21.690Z,11.66
2022-09-23T03:57:50.507Z,11.51
2022-09-23T04:00:19.298Z,11.76
2022-09-23T04:02:49.949Z,11.51
2022-09-23T04:05:19.200Z,11.46
2022-09-23T04:07:50.937Z,11.60
2022-09-23T04:10:20.012Z,11.61
2022-09-23T04:12:48.853Z,11.56
2022-09-23T04:15:17.833Z,11.89
2022-09-23T04:17:46.623Z,11.87
2022-09-23T04:20:16.264Z,12.03
2022-09-23T04:22:46.868Z,11.79
2022-09-23T04:25:17.239Z,11.99
2022-09-23T04:27:46.119Z,11.87
2022-09-23T04:30:24.939Z,12.23
2022-09-23T04:32:53.806Z,12.27
2022-09-23T04:35:22.936Z,12.18
2022-09-23T04:37:52.497Z,12.20
2022-09-23T04:40:22.798Z,12.42
2022-09-23T04:42:52.049Z,12.39
2022-09-23T04:45:20.813Z,12.23
2022-09-23T04:47:49.559Z,12.39
2022-09-23T04:50:18.500Z,12.24
2022-09-23T04:52:47.301Z,12.51
2022-09-23T04:55:16.586Z,12.66
2022-09-23T04:57:46.891Z,12.51
2022-09-23T05:00:16.481Z,12.57
2022-09-23T05:02:46.340Z,12.40
2022-09-23T05:05:21.323Z,12.54
2022-09-23T05:07:51.022Z,12.48
2022-09-23T05:10:20.141Z,12.47
2022-09-23T05:12:56.316Z,12.36
2022-09-23T05:15:26.634Z,12.51
2022-09-23T05:17:58.736Z,12.73
2022-09-23T05:20:27.626Z,12.15
2022-09-23T05:22:57.125Z,12.49
2022-09-23T05:25:26.042Z,11.82
2022-09-23T05:27:56.447Z,11.51
2022-09-23T05:30:25.560Z,11.86
2022-09-23T05:32:54.440Z,12.43
2022-09-23T05:35:23.534Z,11.85
2022-09-23T05:37:52.861Z,12.47
2022-09-23T05:40:22.308Z,12.41
2022-09-23T05:42:51.868Z,12.80
2022-09-23T05:45:22.106Z,13.04
2022-09-23T05:47:51.155Z,12.99
2022-09-23T05:50:23.550Z,12.85
2022-09-23T05:52:53.054Z,12.82
2022-09-23T05:55:24.902Z,12.67
2022-09-23T06:01:15.090Z,13.01
2022-09-23T06:03:47.799Z,12.87
2022-09-23T06:06:20.419Z,12.88
2022-09-23T06:08:50.028Z,12.52
2022-09-23T06:11:21.660Z,12.59
2022-09-23T06:13:52.601Z,12.80
2022-09-23T06:16:22.917Z,12.92
2022-09-23T06:18:51.743Z,12.60
2022-09-23T06:21:20.908Z,13.09
2022-09-23T06:23:53.101Z,13.44
2022-09-23T06:26:23.338Z,13.21
2022-09-23T06:28:52.176Z,13.46
2022-09-23T06:31:22.461Z,13.63
2022-09-23T06:34:01.879Z,13.47
2022-09-23T06:36:43.410Z,13.49
2022-09-23T06:39:15.062Z,13.61
2022-09-23T06:41:44.817Z,13.74
2022-09-23T06:44:17.201Z,13.76
2022-09-23T06:46:47.825Z,13.59
2022-09-23T06:49:16.805Z,13.37
2022-09-23T06:51:48.441Z,13.64
2022-09-23T06:54:18.167Z,13.93
2022-09-23T06:56:47.583Z,14.31
2022-09-23T06:59:18.450Z,14.11
2022-09-23T07:01:50.803Z,14.19
2022-09-23T07:04:20.253Z,13.62
2022-09-23T07:06:49.016Z,13.51
2022-09-23T07:09:18.304Z,13.63
2022-09-23T07:11:48.542Z,13.45
2022-09-23T07:14:17.473Z,13.33
2022-09-23T07:16:53.470Z,13.09
2022-09-23T07:19:22.380Z,13.26
2022-09-23T07:21:51.137Z,13.10
2022-09-23T07:24:20.063Z,13.62
2022-09-23T07:26:49.022Z,13.79
2022-09-23T07:29:17.845Z,13.48
2022-09-23T07:31:46.780Z,13.50
2022-09-23T07:34:17.040Z,13.66
2022-09-23T07:36:45.778Z,13.88
2022-09-23T07:39:14.699Z,13.82
2022-09-23T07:41:44.798Z,13.72
2022-09-23T07:44:13.812Z,13.66
2022-09-23T07:46:42.975Z,13.89
2022-09-23T07:49:12.005Z,14.18
2022-09-23T07:51:46.372Z,14.29
2022-09-23T07:55:20.723Z,14.66
2022-09-23T07:57:50.822Z,15.12
2022-09-23T08:00:37.184Z,15.35
2022-09-23T08:03:28.388Z,15.79
2022-09-23T08:06:05.671Z,15.89
2022-09-23T08:08:39.548Z,15.53
2022-09-23T08:11:11.138Z,15.30
2022-09-23T08:13:43.864Z,15.53
2022-09-23T08:16:13.786Z,15.26
2022-09-23T08:18:46.209Z,15.49
2022-09-23T08:21:20.626Z,15.16
2022-09-23T08:23:51.839Z,14.44
2022-09-23T08:26:23.420Z,14.48
2022-09-23T08:28:54.714Z,14.22
2022-09-23T08:31:24.678Z,13.98
2022-09-23T08:33:56.847Z,13.79
2022-09-23T08:36:31.115Z,13.98
2022-09-23T08:39:04.539Z,13.89
2022-09-23T08:41:41.700Z,13.70
2022-09-23T08:44:20.787Z,13.56
2022-09-23T08:46:56.998Z,12.91
2022-09-23T08:49:33.777Z,12.70
2022-09-23T08:52:09.305Z,12.95
2022-09-23T08:54:39.695Z,12.94
2022-09-23T08:57:17.787Z,13.16
2022-09-23T08:59:47.648Z,13.36
2022-09-23T09:02:20.601Z,13.32
2022-09-23T09:04:53.966Z,13.55
2022-09-23T09:07:36.614Z,13.76
2022-09-23T09:10:16.503Z,14.25
2022-09-23T09:12:47.505Z,14.27
2022-09-23T09:15:21.241Z,14.86
2022-09-23T09:18:01.314Z,15.11
2022-09-23T09:20:39.884Z,14.64
2022-09-23T09:23:21.900Z,14.71
2022-09-23T09:25:54.273Z,14.46
2022-09-23T09:28:31.042Z,14.13
2022-09-23T09:31:02.858Z,14.51
2022-09-23T09:33:40.410Z,14.44
2022-09-23T09:36:21.101Z,14.57
2022-09-23T09:38:51.162Z,14.83
2022-09-23T09:41:24.745Z,15.02
2022-09-23T09:43:57.807Z,15.08
2022-09-23T09:46:51.803Z,14.57
2022-09-23T09:49:27.977Z,15.31
2022-09-23T09:52:22.719Z,14.51
2022-09-23T09:54:52.152Z,14.91
2022-09-23T09:57:35.057Z,15.19
2022-09-23T10:00:37.281Z,15.49
2022-09-23T10:03:25.361Z,15.10
2022-09-23T10:05:56.852Z,15.57
2022-09-23T10:08:29.379Z,15.82
2022-09-23T10:11:03.543Z,16.11
2022-09-23T10:13:34.069Z,15.82
2022-09-23T10:16:07.178Z,15.67
2022-09-23T10:18:51.159Z,15.52
2022-09-23T10:21:27.732Z,14.83
2022-09-23T10:24:01.043Z,14.74
2022-09-23T10:26:32.484Z,14.95
2022-09-23T10:29:12.245Z,14.77
2022-09-23T10:31:41.407Z,14.88
2022-09-23T10:34:25.952Z,14.95
2022-09-23T10:36:56.656Z,14.84
2022-09-23T10:39:43.351Z,15.32
2022-09-23T10:42:40.404Z,15.07
2022-09-23T10:45:39.780Z,15.03
2022-09-23T10:48:23.087Z,15.36
2022-09-23T10:50:54.487Z,15.19
2022-09-23T10:53:35.047Z,15.38
2022-09-23T10:56:16.885Z,15.52
2022-09-23T10:59:30.487Z,15.68
2022-09-23T11:02:18.062Z,15.29
2022-09-23T11:05:22.461Z,15.96
2022-09-23T11:07:57.067Z,15.80
2022-09-23T11:10:54.475Z,16.61
2022-09-23T11:13:41.396Z,16.26
2022-09-23T11:16:22.709Z,16.82
2022-09-23T11:19:32.441Z,17.80
2022-09-23T11:22:16.320Z,17.13
2022-09-23T11:24:58.585Z,17.95
2022-09-23T11:27:46.499Z,18.81
2022-09-23T11:30:20.054Z,20.20
2022-09-23T11:33:29.730Z,22.24
2022-09-23T11:36:05.047Z,24.37
2022-09-23T11:38:41.266Z,23.25
2022-09-23T11:41:19.598Z,26.17
2022-09-23T11:43:53.992Z,22.60
2022-09-23T11:46:32.401Z,24.77
2022-09-23T11:49:09.573Z,27.93
2022-09-23T11:51:50.972Z,26.48
2022-09-23T11:54:24.499Z,27.59
2022-09-23T11:56:57.942Z,28.49
2022-09-23T11:59:40.737Z,30.97
2022-09-23T12:02:25.626Z,30.91
2022-09-23T12:05:03.721Z,25.61
2022-09-23T12:07:51.633Z,22.41
2022-09-23T12:10:22.517Z,21.29
2022-09-23T12:13:00.833Z,21.70
2022-09-23T12:15:43.142Z,19.80
2022-09-23T12:18:38.437Z,18.71
2022-09-23T12:21:49.835Z,18.40
2022-09-23T12:24:47.354Z,16.88
2022-09-23T12:27:29.156Z,17.28
2022-09-23T12:30:03.231Z,17.04
2022-09-23T12:32:33.433Z,16.30
2022-09-23T12:35:02.861Z,15.89
2022-09-23T12:37:37.365Z,16.02
2022-09-23T12:40:20.229Z,16.11
2022-09-23T12:42:50.986Z,15.80
2022-09-23T12:45:40.180Z,16.12
2022-09-23T12:48:44.208Z,15.85
2022-09-23T12:51:19.195Z,15.45
2022-09-23T12:53:57.853Z,14.90
2022-09-23T12:57:10.399Z,15.14
2022-09-23T12:59:58.753Z,15.20
2022-09-23T13:02:40.895Z,14.66
2022-09-23T13:05:38.227Z,14.50
2022-09-23T13:08:13.314Z,15.06
2022-09-23T13:10:49.518Z,14.25
2022-09-23T13:13:26.151Z,14.81
2022-09-23T13:15:55.621Z,14.89
2022-09-23T13:18:46.618Z,14.74
2022-09-23T13:21:39.920Z,14.60
2022-09-23T13:24:21.921Z,14.71
2022-09-23T13:26:53.911Z,14.46
2022-09-23T13:29:27.138Z,14.64
2022-09-23T13:31:58.408Z,14.61
2022-09-23T13:34:32.539Z,14.47
2022-09-23T13:37:22.240Z,14.10
2022-09-23T13:39:53.166Z,14.16
2022-09-23T13:42:28.209Z,14.36
2022-09-23T13:45:00.497Z,14.18
2022-09-23T13:47:32.319Z,14.47
2022-09-23T13:50:01.847Z,13.73
2022-09-23T13:52:32.862Z,14.03
2022-09-23T13:55:03.081Z,14.24
2022-09-23T13:57:34.149Z,14.24
2022-09-23T14:00:17.278Z,14.11
2022-09-23T14:02:47.071Z,14.12
2022-09-23T14:05:24.866Z,13.94
2022-09-23T14:07:55.575Z,13.86
2022-09-23T14:10:27.713Z,13.56
2022-09-23T14:12:59.581Z,13.66
2022-09-23T14:15:30.846Z,13.69
2022-09-23T14:18:04.703Z,13.60
2022-09-23T14:20:34.402Z,13.57
2022-09-23T14:23:14.128Z,13.81
2022-09-23T14:25:45.973Z,13.84
2022-09-23T14:28:20.220Z,14.05
2022-09-23T14:30:51.946Z,13.53
2022-09-23T14:33:26.695Z,13.72
2022-09-23T14:36:02.853Z,13.50
2022-09-23T14:38:50.581Z,13.46
2022-09-23T14:41:26.576Z,13.50
2022-09-23T14:43:59.275Z,13.37
2022-09-23T14:46:30.053Z,13.46
2022-09-23T14:49:05.990Z,13.29
2022-09-23T14:51:49.273Z,13.33
2022-09-23T14:54:36.150Z,13.03
2022-09-23T14:57:26.777Z,13.26
2022-09-23T15:00:00.330Z,13.15
2022-09-23T15:02:35.287Z,13.07
2022-09-23T15:05:20.637Z,13.04
2022-09-23T15:07:52.562Z,12.90
2022-09-23T15:10:24.798Z,12.93
2022-09-23T15:13:03.368Z,12.98
2022-09-23T15:15:32.521Z,12.86
2022-09-23T15:18:07.921Z,12.79
2022-09-23T15:20:37.706Z,12.83
2022-09-23T15:23:06.833Z,12.66
2022-09-23T15:25:41.146Z,12.57
2022-09-23T15:28:23.730Z,12.51
2022-09-23T15:30:53.622Z,12.37
2022-09-23T15:33:27.956Z,12.49
2022-09-23T15:35:57.247Z,12.35
2022-09-23T15:38:26.945Z,12.03
2022-09-23T15:40:56.439Z,11.89
2022-09-23T15:43:27.247Z,12.06
2022-09-23T15:45:58.808Z,11.93
2022-09-23T15:48:36.441Z,11.82
2022-09-23T15:51:08.422Z,11.97
2022-09-23T15:53:38.398Z,11.66
2022-09-23T15:56:07.715Z,11.62
2022-09-23T15:58:37.873Z,11.78
2022-09-23T16:01:07.861Z,11.79
2022-09-23T16:03:36.674Z,11.81
2022-09-23T16:06:06.390Z,11.79
2022-09-23T16:08:35.401Z,11.80
2022-09-23T16:11:06.188Z,11.88
2022-09-23T16:13:35.584Z,11.73
2022-09-23T16:16:07.965Z,11.75
2022-09-23T16:18:38.303Z,11.74
2022-09-23T16:21:09.493Z,11.75
2022-09-23T16:23:43.589Z,11.78
2022-09-23T16:26:17.701Z,11.65
2022-09-23T16:28:48.502Z,11.57
2022-09-23T16:31:19.423Z,11.65
2022-09-23T16:33:51.401Z,11.69
2022-09-23T16:36:26.039Z,11.49
2022-09-23T16:38:56.881Z,11.50
2022-09-23T16:41:27.853Z,11.32
2022-09-23T16:43:57.682Z,11.42
2022-09-23T16:46:31.543Z,11.39
2022-09-23T16:49:01.242Z,11.31
2022-09-23T16:51:36.351Z,11.29
2022-09-23T16:54:11.337Z,11.39
2022-09-23T16:56:45.111Z,11.40
2022-09-23T16:59:14.802Z,10.54
2022-09-23T17:02:03.975Z,11.31
2022-09-23T17:04:33.817Z,11.37
2022-09-23T17:07:03.376Z,11.40
2022-09-23T17:09:33.502Z,11.55
2022-09-23T17:12:13.213Z,11.58
2022-09-23T17:14:45.568Z,11.12
2022-09-23T17:17:16.154Z,11.22
2022-09-23T17:19:45.299Z,11.09
2022-09-23T17:22:14.884Z,11.23
2022-09-23T17:24:44.342Z,11.54
2022-09-23T17:27:15.973Z,11.63
2022-09-23T17:29:45.552Z,11.53
2022-09-23T17:32:16.115Z,11.43
2022-09-23T17:34:45.721Z,11.37
2022-09-23T17:37:14.935Z,11.55
2022-09-23T17:39:44.167Z,11.37
2022-09-23T17:42:15.436Z,11.56
2022-09-23T17:44:44.641Z,11.41
2022-09-23T17:47:15.107Z,11.38
2022-09-23T17:49:47.023Z,11.44
2022-09-23T17:52:16.618Z,11.24
2022-09-23T17:54:46.392Z,11.43
2022-09-23T17:57:16.348Z,11.33
2022-09-23T17:59:45.336Z,11.45
2022-09-23T18:02:15.975Z,11.10
2022-09-23T18:04:46.160Z,11.26
2022-09-23T18:07:19.009Z,10.97
2022-09-23T18:09:48.102Z,11.17
2022-09-23T18:12:17.704Z,11.04
2022-09-23T18:14:47.923Z,10.81
2022-09-23T18:17:18.921Z,10.91
2022-09-23T18:19:49.428Z,10.88
2022-09-23T18:22:19.065Z,10.76
2022-09-23T18:24:48.469Z,11.07
2022-09-23T18:27:17.770Z,11.12
2022-09-23T18:29:47.138Z,11.09
2022-09-23T18:32:17.028Z,10.97
2022-09-23T18:34:47.936Z,11.06
2022-09-23T18:37:17.231Z,10.35
2022-09-23T18:39:48.740Z,10.78
2022-09-23T18:42:18.663Z,10.80
2022-09-23T18:44:50.029Z,10.76
2022-09-23T18:47:33.437Z,10.73
2022-09-23T18:50:21.490Z,10.76
2022-09-23T18:52:50.779Z,10.69
2022-09-23T18:55:20.294Z,10.88
2022-09-23T18:57:49.290Z,10.98
2022-09-23T19:00:18.584Z,10.87
2022-09-23T19:02:48.393Z,10.77
2022-09-23T19:05:19.196Z,10.79
2022-09-23T19:07:48.115Z,10.88
2022-09-23T19:10:17.122Z,10.84
2022-09-23T19:12:47.089Z,11.01
2022-09-23T19:15:16.215Z,11.15
2022-09-23T19:17:45.445Z,11.05
2022-09-23T19:20:14.488Z,11.01
2022-09-23T19:22:48.469Z,10.91
2022-09-23T19:25:17.549Z,10.90
2022-09-23T19:27:46.434Z,11.08
2022-09-23T19:30:16.288Z,10.63
2022-09-23T19:32:46.100Z,11.20
2022-09-23T19:35:16.181Z,11.02
2022-09-23T19:37:46.191Z,10.85
2022-09-23T19:40:18.112Z,11.11
2022-09-23T19:42:47.506Z,11.07
2022-09-23T19:45:17.453Z,10.85
2022-09-23T19:47:46.492Z,11.00
2022-09-23T19:50:16.149Z,11.14
2022-09-23T19:52:45.438Z,10.98
2022-09-23T19:55:15.021Z,11.26
2022-09-23T19:57:45.235Z,11.09
2022-09-23T20:00:16.339Z,10.84
2022-09-23T20:02:45.625Z,11.17
2022-09-23T20:05:18.458Z,11.13
2022-09-23T20:07:49.704Z,11.18
2022-09-23T20:10:18.648Z,11.00
2022-09-23T20:12:50.191Z,11.11
2022-09-23T20:15:19.792Z,11.13
2022-09-23T20:17:49.298Z,10.74
2022-09-23T20:20:18.438Z,10.81
2022-09-23T20:22:48.202Z,11.07
2022-09-23T20:25:17.205Z,11.09
2022-09-23T20:27:52.791Z,10.63
2022-09-23T20:30:22.537Z,11.01
2022-09-23T20:32:51.316Z,11.35
2022-09-23T20:35:21.792Z,10.88
2022-09-23T20:37:52.107Z,11.17
2022-09-23T20:40:23.077Z,10.99
2022-09-23T20:42:53.839Z,11.02
2022-09-23T20:45:23.182Z,11.14
2022-09-23T20:47:52.060Z,10.89
2022-09-23T20:50:21.067Z,11.06
2022-09-23T20:52:50.500Z,10.88
2022-09-23T20:55:19.680Z,10.99
2022-09-23T20:57:49.672Z,11.24
2022-09-23T21:00:19.949Z,11.12
2022-09-23T21:02:49.232Z,11.03
2022-09-23T21:05:18.554Z,11.09
2022-09-23T21:07:47.490Z,11.13
2022-09-23T21:10:16.487Z,11.05
2022-09-23T21:12:50.516Z,10.96
2022-09-23T21:15:23.026Z,10.83
2022-09-23T21:17:51.574Z,10.89
2022-09-23T21:20:20.677Z,10.99
2022-09-23T21:22:50.690Z,10.83
2022-09-23T21:25:28.967Z,10.77
2022-09-23T21:27:59.039Z,10.83
2022-09-23T21:30:29.146Z,10.88
2022-09-23T21:32:59.553Z,10.89
2022-09-23T21:35:28.399Z,11.10
2022-09-23T21:37:57.241Z,11.04
2022-09-23T21:40:43.601Z,11.11
2022-09-23T21:43:12.533Z,10.82
2022-09-23T21:45:43.090Z,10.93
2022-09-23T21:48:12.005Z,10.94
2022-09-23T21:50:41.116Z,10.75
2022-09-23T21:53:09.914Z,10.94
2022-09-23T21:55:38.731Z,11.07
2022-09-23T21:58:07.529Z,11.16
2022-09-23T22:00:36.338Z,10.97
2022-09-23T22:03:06.954Z,11.12
2022-09-23T22:05:44.234Z,11.10
2022-09-23T22:08:13.096Z,11.23
2022-09-23T22:10:45.324Z,11.06
2022-09-23T22:13:14.132Z,11.19
2022-09-23T22:15:43.915Z,11.31
2022-09-23T22:18:14.627Z,10.94
2022-09-23T22:20:43.832Z,10.97
2022-09-23T22:23:15.137Z,11.08
2022-09-23T22:25:44.322Z,11.00
2022-09-23T22:28:27.197Z,10.91
2022-09-23T22:31:28.065Z,10.81
2022-09-23T22:33:58.208Z,10.76
2022-09-23T22:36:27.262Z,10.82
2022-09-23T22:38:59.170Z,11.02
2022-09-23T22:41:28.409Z,11.05
2022-09-23T22:43:58.555Z,11.12
2022-09-23T22:46:28.115Z,10.86
2022-09-23T22:48:59.442Z,11.04
2022-09-23T22:51:29.089Z,11.01
2022-09-23T22:53:58.165Z,11.00
2022-09-23T22:56:26.826Z,11.25
2022-09-23T22:58:57.062Z,10.98
2022-09-23T23:01:26.423Z,10.72
2022-09-23T23:03:56.788Z,11.07
2022-09-23T23:06:27.435Z,11.06
2022-09-23T23:08:59.605Z,10.89
2022-09-23T23:11:30.424Z,11.11
2022-09-23T23:14:01.407Z,10.91
2022-09-23T23:16:33.920Z,10.91
2022-09-23T23:19:06.737Z,11.06
2022-09-23T23:21:37.924Z,11.07
2022-09-23T23:24:07.285Z,10.52
2022-09-23T23:26:35.931Z,11.23
2022-09-23T23:29:04.973Z,11.07
2022-09-23T23:31:33.798Z,11.05
2022-09-23T23:34:02.842Z,11.05
2022-09-23T23:36:32.226Z,11.05
2022-09-23T23:39:02.775Z,11.20
2022-09-23T23:41:31.693Z,10.89
2022-09-23T23:44:01.609Z,10.99
2022-09-23T23:46:31.995Z,11.29
2022-09-23T23:49:01.059Z,11.15
2022-09-23T23:51:30.078Z,11.04
2022-09-23T23:54:00.915Z,11.17
2022-09-23T23:56:32.056Z,11.29
2022-09-23T23:59:03.526Z,11.14
